Dunedin, New Zealand
Current Conditions -  °F | °C
As of 1:00 PM on Sunday 21 Dec 2014 (Local Time) from NZCH Reporting Station
Broken Clouds Broken Clouds  
Wind Chill: 68°   Ceiling: 2800
Heat Index: 68°   Visibility: 6mi
Dew Point: 55°   Wind: 14mph
Humidity: 64%   Direction: 180°S
Pressure: 29.74"   Gusts: NA
Location:  45.52°S, 170.3°E
Report Text: NZCH 210100Z AUTO 18012KT 9999 BKN028/// 20/13 Q1007 NOSIG
Loading
Personal Weather Stations






























Interactive Weather Map New forecast layout! Learn more

10-Day Weather Forecast

Advertisements
Track Severe Weather on mobile